DLH2PL EDDC-EDDS
Flight info
| Callsign | DLH2PL |
|---|---|
| Flight time | N/A |
| Altitude | 30000 |
| Route | ABKIS4E/04 ABKIS Z715 ANELA N869 DKB/N0409F240 Z818 GEBNO/N0403F230 T726 LBU |
| Aircraft | A320/M-SDE3FGHIRWY/LB1 |
Departure
| Time | 2026-04-28 10:57 |
|---|---|
| Airport | Dresden Airport (EDDC) |
Arrival
| Time | N/A |
|---|---|
| Airport | Stuttgart Airport (EDDS) |
| Time | Latitude | Longitude | Altitude | Speed | Heading |
|---|---|---|---|---|---|
| 2026-04-28 10:25 | 51.12633 | 13.76394 | 754 ft | 0 kts | 130° |
| 2026-04-28 10:50 | 51.12650 | 13.76369 | 753 ft | 4 kts | 155° |
| 2026-04-28 10:50 | 51.12673 | 13.76363 | 750 ft | 4 kts | 206° |
| 2026-04-28 10:51 | 51.12684 | 13.76375 | 749 ft | 1 kts | 221° |
| 2026-04-28 10:51 | 51.12685 | 13.76377 | 749 ft | 0 kts | 221° |
| 2026-04-28 10:54 | 51.12685 | 13.76376 | 752 ft | 2 kts | 221° |
| 2026-04-28 10:54 | 51.12644 | 13.76319 | 750 ft | 13 kts | 221° |
| 2026-04-28 10:55 | 51.12563 | 13.76209 | 753 ft | 18 kts | 220° |
| 2026-04-28 10:55 | 51.12543 | 13.76049 | 758 ft | 13 kts | 256° |
| 2026-04-28 10:55 | 51.12485 | 13.75973 | 762 ft | 13 kts | 219° |
| 2026-04-28 10:55 | 51.12402 | 13.75858 | 764 ft | 15 kts | 223° |
| 2026-04-28 10:56 | 51.12390 | 13.75687 | 765 ft | 11 kts | 293° |
| 2026-04-28 10:56 | 51.12440 | 13.75546 | 768 ft | 17 kts | 309° |
| 2026-04-28 10:56 | 51.12517 | 13.75542 | 768 ft | 13 kts | 40° |
| 2026-04-28 10:56 | 51.12611 | 13.75669 | 766 ft | 22 kts | 40° |
| 2026-04-28 10:57 | 51.12825 | 13.75965 | 752 ft | 78 kts | 40° |
| 2026-04-28 10:57 | 51.13438 | 13.76818 | 749 ft | 154 kts | 45° |
| 2026-04-28 10:57 | 51.14316 | 13.77974 | 1439 ft | 168 kts | 40° |
| 2026-04-28 10:57 | 51.15221 | 13.79185 | 2467 ft | 175 kts | 42° |
| 2026-04-28 10:58 | 51.16182 | 13.80546 | 3080 ft | 196 kts | 43° |
| 2026-04-28 10:58 | 51.17254 | 13.82072 | 3715 ft | 219 kts | 43° |
| 2026-04-28 10:58 | 51.18428 | 13.83728 | 4692 ft | 231 kts | 42° |
| 2026-04-28 10:58 | 51.19594 | 13.85551 | 5781 ft | 239 kts | 55° |
| 2026-04-28 10:59 | 51.20084 | 13.88092 | 6797 ft | 251 kts | 85° |
| 2026-04-28 10:59 | 51.19920 | 13.90977 | 7643 ft | 271 kts | 105° |
| 2026-04-28 10:59 | 51.19071 | 13.93722 | 8742 ft | 282 kts | 124° |
| 2026-04-28 10:59 | 51.17743 | 13.96090 | 9858 ft | 292 kts | 134° |
| 2026-04-28 11:00 | 51.16262 | 13.98395 | 10788 ft | 307 kts | 134° |
| 2026-04-28 11:00 | 51.14702 | 14.00923 | 11347 ft | 332 kts | 132° |
| 2026-04-28 11:00 | 51.13061 | 14.03638 | 12122 ft | 347 kts | 132° |
| 2026-04-28 11:00 | 51.11374 | 14.06445 | 13135 ft | 354 kts | 133° |
| 2026-04-28 11:01 | 51.09488 | 14.08999 | 14114 ft | 361 kts | 149° |
| 2026-04-28 11:01 | 51.07132 | 14.10428 | 14944 ft | 367 kts | 171° |
| 2026-04-28 11:01 | 51.04620 | 14.10412 | 15852 ft | 366 kts | 193° |
| 2026-04-28 11:01 | 51.02245 | 14.09002 | 16769 ft | 365 kts | 214° |
| 2026-04-28 11:02 | 51.00285 | 14.06467 | 17692 ft | 365 kts | 226° |
| 2026-04-28 11:02 | 50.98447 | 14.03662 | 18631 ft | 368 kts | 227° |
| 2026-04-28 11:02 | 50.96596 | 14.00819 | 19417 ft | 372 kts | 227° |
| 2026-04-28 11:02 | 50.94901 | 13.98218 | 20133 ft | 375 kts | 227° |